CAT629 EKOD-LIPE
Flight info
| Callsign | CAT629 |
|---|---|
| Flight time | N/A |
| Altitude | 33000 |
| Route | ASBIL P615 ALS M852 POVEL Z94 GALMA T703 LULAR T105 RDG M736 LIZUM N503 LIKDA DCT VADIK DCT BAMEK |
| Aircraft | B738/M-SDE2E3FGHIRWXY/LB2 |
Departure
| Time | 2026-05-05 09:41 |
|---|---|
| Airport | Odense Hans Christian Andersen Airport (EKOD) |
Arrival
| Time | N/A |
|---|---|
| Airport | Bologna Guglielmo Marconi Airport (LIPE) |
| Time | Latitude | Longitude | Altitude | Speed | Heading |
|---|---|---|---|---|---|
| 2026-05-05 09:17 | 55.47345 | 10.32897 | 54 ft | 0 kts | 135° |
| 2026-05-05 09:38 | 55.47337 | 10.32902 | 54 ft | 3 kts | 184° |
| 2026-05-05 09:38 | 55.47336 | 10.32827 | 54 ft | 12 kts | 279° |
| 2026-05-05 09:38 | 55.47407 | 10.32677 | 54 ft | 18 kts | 315° |
| 2026-05-05 09:38 | 55.47499 | 10.32601 | 54 ft | 14 kts | 36° |
| 2026-05-05 09:39 | 55.47558 | 10.32766 | 54 ft | 19 kts | 59° |
| 2026-05-05 09:39 | 55.47643 | 10.33022 | 54 ft | 29 kts | 59° |
| 2026-05-05 09:39 | 55.47761 | 10.33377 | 50 ft | 37 kts | 59° |
| 2026-05-05 09:39 | 55.47889 | 10.33769 | 48 ft | 36 kts | 60° |
| 2026-05-05 09:40 | 55.48018 | 10.34091 | 47 ft | 20 kts | 42° |
| 2026-05-05 09:40 | 55.48002 | 10.34105 | 47 ft | 6 kts | 236° |
| 2026-05-05 09:40 | 55.47990 | 10.34070 | 47 ft | 0 kts | 239° |
| 2026-05-05 09:41 | 55.47958 | 10.33976 | 47 ft | 38 kts | 239° |
| 2026-05-05 09:41 | 55.47693 | 10.33177 | 54 ft | 110 kts | 240° |
| 2026-05-05 09:41 | 55.47197 | 10.31680 | 52 ft | 168 kts | 241° |
| 2026-05-05 09:41 | 55.46610 | 10.29935 | 690 ft | 169 kts | 241° |
| 2026-05-05 09:42 | 55.45996 | 10.28215 | 1428 ft | 170 kts | 239° |
| 2026-05-05 09:42 | 55.45375 | 10.26378 | 1989 ft | 182 kts | 243° |
| 2026-05-05 09:42 | 55.44740 | 10.24375 | 2613 ft | 192 kts | 243° |
| 2026-05-05 09:42 | 55.44082 | 10.22279 | 3199 ft | 206 kts | 244° |
| 2026-05-05 09:43 | 55.43401 | 10.20035 | 3848 ft | 211 kts | 245° |
| 2026-05-05 09:43 | 55.42706 | 10.17677 | 4305 ft | 226 kts | 244° |
| 2026-05-05 09:43 | 55.41957 | 10.15145 | 4814 ft | 240 kts | 244° |
| 2026-05-05 09:43 | 55.41177 | 10.12530 | 5423 ft | 248 kts | 244° |
| 2026-05-05 09:44 | 55.40351 | 10.09790 | 5951 ft | 261 kts | 243° |
| 2026-05-05 09:44 | 55.39490 | 10.06954 | 6656 ft | 266 kts | 243° |
| 2026-05-05 09:44 | 55.38603 | 10.04116 | 7423 ft | 268 kts | 240° |
| 2026-05-05 09:44 | 55.37421 | 10.01583 | 8202 ft | 272 kts | 221° |
| 2026-05-05 09:45 | 55.35774 | 9.99974 | 8940 ft | 279 kts | 200° |
| 2026-05-05 09:45 | 55.33839 | 9.99354 | 9670 ft | 285 kts | 187° |
| 2026-05-05 09:45 | 55.31877 | 9.99259 | 10327 ft | 291 kts | 184° |
| 2026-05-05 09:45 | 55.29800 | 9.99279 | 10695 ft | 306 kts | 183° |
| 2026-05-05 09:46 | 55.27628 | 9.99318 | 11047 ft | 321 kts | 183° |
| 2026-05-05 09:46 | 55.25339 | 9.99343 | 11394 ft | 336 kts | 184° |
| 2026-05-05 09:46 | 55.22943 | 9.99352 | 11723 ft | 351 kts | 184° |
| 2026-05-05 09:46 | 55.20464 | 9.99351 | 12035 ft | 366 kts | 184° |
| 2026-05-05 09:47 | 55.17898 | 9.99346 | 12422 ft | 377 kts | 184° |
| 2026-05-05 09:47 | 55.15247 | 9.99345 | 13038 ft | 382 kts | 184° |
| 2026-05-05 09:47 | 55.12580 | 9.99347 | 13700 ft | 385 kts | 184° |
| 2026-05-05 09:47 | 55.09923 | 9.99348 | 14314 ft | 389 kts | 184° |
| 2026-05-05 09:48 | 55.07195 | 9.99348 | 14937 ft | 392 kts | 184° |
| 2026-05-05 09:48 | 55.04450 | 9.99346 | 15550 ft | 396 kts | 184° |
| 2026-05-05 09:48 | 55.01693 | 9.99343 | 16161 ft | 399 kts | 184° |
| 2026-05-05 09:48 | 54.98930 | 9.99340 | 16737 ft | 403 kts | 184° |
| 2026-05-05 09:49 | 54.96150 | 9.99337 | 17343 ft | 405 kts | 183° |
| 2026-05-05 09:49 | 54.93314 | 9.99322 | 17903 ft | 408 kts | 184° |
| 2026-05-05 09:49 | 54.90472 | 9.99121 | 18473 ft | 410 kts | 188° |
| 2026-05-05 09:49 | 54.87633 | 9.98552 | 19047 ft | 411 kts | 192° |
| 2026-05-05 09:50 | 54.84845 | 9.97747 | 19627 ft | 413 kts | 193° |
| 2026-05-05 09:50 | 54.82027 | 9.96817 | 20156 ft | 416 kts | 194° |
| 2026-05-05 09:50 | 54.79171 | 9.95832 | 20678 ft | 419 kts | 194° |
| 2026-05-05 09:50 | 54.76298 | 9.94837 | 21232 ft | 422 kts | 194° |
| 2026-05-05 09:51 | 54.73422 | 9.93849 | 21735 ft | 424 kts | 194° |
| 2026-05-05 09:51 | 54.70534 | 9.92869 | 22221 ft | 428 kts | 194° |
| 2026-05-05 09:51 | 54.67629 | 9.91896 | 22779 ft | 429 kts | 194° |
| 2026-05-05 09:51 | 54.64704 | 9.90926 | 23238 ft | 432 kts | 194° |
| 2026-05-05 09:52 | 54.61746 | 9.89959 | 23689 ft | 436 kts | 194° |
| 2026-05-05 09:52 | 54.58727 | 9.88984 | 24155 ft | 439 kts | 194° |
| 2026-05-05 09:52 | 54.55738 | 9.88048 | 24616 ft | 442 kts | 193° |
| 2026-05-05 09:52 | 54.52679 | 9.87378 | 25047 ft | 448 kts | 188° |
| 2026-05-05 09:53 | 54.49535 | 9.87354 | 25478 ft | 455 kts | 180° |
| 2026-05-05 09:53 | 54.46423 | 9.88030 | 25929 ft | 460 kts | 174° |
| 2026-05-05 09:53 | 54.43274 | 9.89105 | 26345 ft | 464 kts | 172° |
| 2026-05-05 09:53 | 54.40107 | 9.90389 | 26761 ft | 467 kts | 170° |
| 2026-05-05 09:54 | 54.36969 | 9.91759 | 27368 ft | 465 kts | 169° |
| 2026-05-05 09:54 | 54.33819 | 9.93171 | 28070 ft | 461 kts | 169° |
| 2026-05-05 09:54 | 54.30696 | 9.94567 | 28590 ft | 460 kts | 170° |
| 2026-05-05 09:54 | 54.27610 | 9.95929 | 29087 ft | 459 kts | 170° |
| 2026-05-05 09:55 | 54.24531 | 9.97269 | 29589 ft | 457 kts | 170° |
| 2026-05-05 09:55 | 54.21469 | 9.98583 | 30032 ft | 457 kts | 170° |
| 2026-05-05 09:55 | 54.18364 | 9.99903 | 30577 ft | 454 kts | 171° |
| 2026-05-05 09:55 | 54.15315 | 10.01189 | 31007 ft | 452 kts | 171° |
| 2026-05-05 09:56 | 54.12271 | 10.02464 | 31359 ft | 452 kts | 171° |
| 2026-05-05 09:56 | 54.09238 | 10.03729 | 31736 ft | 451 kts | 171° |
| 2026-05-05 09:56 | 54.06198 | 10.04995 | 32149 ft | 449 kts | 171° |
| 2026-05-05 09:56 | 54.03194 | 10.06243 | 32493 ft | 449 kts | 171° |
| 2026-05-05 09:57 | 54.00145 | 10.07507 | 32811 ft | 449 kts | 171° |
| 2026-05-05 09:57 | 53.97112 | 10.08761 | 32966 ft | 452 kts | 171° |
| 2026-05-05 09:57 | 53.94070 | 10.10015 | 33224 ft | 452 kts | 171° |
| 2026-05-05 09:57 | 53.91044 | 10.11262 | 33613 ft | 450 kts | 171° |